createdAt,value
2022-12-02T00:00:26.830Z,95447.13
2022-12-02T00:02:58.327Z,95444.28
2022-12-02T00:05:31.039Z,95439.16
2022-12-02T00:08:13.341Z,95452.38
2022-12-02T00:10:40.178Z,95447.78
2022-12-02T00:13:30.007Z,95448.78
2022-12-02T00:16:03.995Z,95451.94
2022-12-02T00:18:31.511Z,95444.19
2022-12-02T00:20:58.329Z,95444.28
2022-12-02T00:23:25.143Z,95441.69
2022-12-02T00:25:53.981Z,95450.59
2022-12-02T00:28:21.321Z,95443.72
2022-12-02T00:30:48.139Z,95446.75
2022-12-02T00:33:15.762Z,95451.84
2022-12-02T00:35:43.222Z,95441.28
2022-12-02T00:38:10.583Z,95442.84
2022-12-02T00:40:37.658Z,95441.28
2022-12-02T00:43:23.452Z,95442.16
2022-12-02T00:46:09.202Z,95436.16
2022-12-02T00:48:36.874Z,95433.06
2022-12-02T00:51:03.981Z,95438.03
2022-12-02T00:53:32.611Z,95429.03
2022-12-02T00:55:59.399Z,95440.66
2022-12-02T00:58:26.509Z,95440.53
2022-12-02T01:00:53.268Z,95432.72
2022-12-02T01:03:20.219Z,95433.59
2022-12-02T01:05:48.031Z,95430.50
2022-12-02T01:08:14.846Z,95430.78
2022-12-02T01:10:41.747Z,95428.81
2022-12-02T01:13:08.537Z,95429.53
2022-12-02T01:15:35.397Z,95429.41
2022-12-02T01:18:02.260Z,95428.28
2022-12-02T01:20:29.218Z,95419.53
2022-12-02T01:22:56.083Z,95418.78
2022-12-02T01:25:22.777Z,95420.06
2022-12-02T01:27:49.522Z,95420.47
2022-12-02T01:30:16.454Z,95408.13
2022-12-02T01:32:43.193Z,95414.38
2022-12-02T01:35:10.298Z,95420.47
2022-12-02T01:37:38.093Z,95411.34
2022-12-02T01:40:08.610Z,95417.94
2022-12-02T01:42:35.650Z,95408.84
2022-12-02T01:45:03.330Z,95430.56
2022-12-02T01:47:31.693Z,95415.34
2022-12-02T01:49:58.835Z,95420.34
2022-12-02T01:52:26.021Z,95420.13
2022-12-02T01:54:53.485Z,95427.69
2022-12-02T01:57:26.809Z,95422.38
2022-12-02T01:59:53.862Z,95416.97
2022-12-02T02:02:26.541Z,95419.09
2022-12-02T02:04:57.482Z,95426.97
2022-12-02T02:07:24.781Z,95427.91
2022-12-02T02:09:52.003Z,95429.06
2022-12-02T02:12:19.046Z,95434.13
2022-12-02T02:14:46.721Z,95435.31
2022-12-02T02:17:13.888Z,95440.44
2022-12-02T02:19:40.815Z,95434.75
2022-12-02T02:22:13.829Z,95436.69
2022-12-02T02:24:40.668Z,95427.84
2022-12-02T02:27:07.656Z,95430.31
2022-12-02T02:29:34.612Z,95427.78
2022-12-02T02:32:02.074Z,95431.84
2022-12-02T02:34:28.930Z,95443.53
2022-12-02T02:36:56.266Z,95444.19
2022-12-02T02:39:24.141Z,95439.25
2022-12-02T02:41:53.461Z,95439.44
2022-12-02T02:44:25.472Z,95438.03
2022-12-02T02:46:53.453Z,95440.47
2022-12-02T02:49:20.782Z,95445.78
2022-12-02T02:51:47.774Z,95438.16
2022-12-02T02:54:15.421Z,95449.31
2022-12-02T02:56:42.505Z,95457.28
2022-12-02T02:59:16.600Z,95456.09
2022-12-02T03:01:48.171Z,95448.69
2022-12-02T03:04:19.080Z,95455.09
2022-12-02T03:06:47.644Z,95457.06
2022-12-02T03:09:18.120Z,95456.16
2022-12-02T03:11:48.247Z,95450.06
2022-12-02T03:14:17.133Z,95456.19
2022-12-02T03:16:45.786Z,95447.53
2022-12-02T03:19:13.081Z,95453.22
2022-12-02T03:21:40.342Z,95457.16
2022-12-02T03:24:07.552Z,95450.78
2022-12-02T03:26:35.051Z,95455.13
2022-12-02T03:29:04.560Z,95444.94
2022-12-02T03:31:33.666Z,95459.53
2022-12-02T03:34:00.561Z,95466.41
2022-12-02T03:36:28.344Z,95472.06
2022-12-02T03:38:55.828Z,95478.03
2022-12-02T03:41:25.438Z,95479.34
2022-12-02T03:43:52.697Z,95479.13
2022-12-02T03:46:19.542Z,95478.84
2022-12-02T03:48:47.907Z,95476.09
2022-12-02T03:51:15.637Z,95474.09
2022-12-02T03:53:43.878Z,95484.91
2022-12-02T03:56:11.228Z,95486.38
2022-12-02T03:58:56.170Z,95479.56
2022-12-02T04:01:24.409Z,95481.88
2022-12-02T04:03:51.198Z,95480.66
2022-12-02T04:06:18.100Z,95486.78
2022-12-02T04:08:44.866Z,95489.97
2022-12-02T04:11:11.738Z,95501.56
2022-12-02T04:13:38.871Z,95484.34
2022-12-02T04:16:06.021Z,95491.06
2022-12-02T04:18:32.948Z,95484.06
2022-12-02T04:21:00.007Z,95487.81
2022-12-02T04:23:26.764Z,95496.03
2022-12-02T04:25:53.461Z,95497.66
2022-12-02T04:28:20.267Z,95493.13
2022-12-02T04:30:47.003Z,95490.44
2022-12-02T04:33:14.005Z,95493.63
2022-12-02T04:35:40.754Z,95487.59
2022-12-02T04:38:12.008Z,95492.53
2022-12-02T04:40:39.882Z,95491.22
2022-12-02T04:43:06.796Z,95494.19
2022-12-02T04:45:33.736Z,95492.44
2022-12-02T04:48:00.669Z,95491.72
2022-12-02T04:50:27.676Z,95496.81
2022-12-02T04:52:54.349Z,95502.59
2022-12-02T04:55:21.309Z,95502.56
2022-12-02T04:57:48.019Z,95504.72
2022-12-02T05:00:15.493Z,95498.19
2022-12-02T05:02:42.335Z,95505.53
2022-12-02T05:05:10.607Z,95505.53
2022-12-02T05:07:37.414Z,95506.22
2022-12-02T05:10:05.773Z,95506.50
2022-12-02T05:12:32.541Z,95511.56
2022-12-02T05:14:59.389Z,95505.25
2022-12-02T05:17:26.216Z,95506.50
2022-12-02T05:19:53.187Z,95506.47
2022-12-02T05:22:19.942Z,95505.88
2022-12-02T05:24:48.506Z,95505.53
2022-12-02T05:27:16.585Z,95500.44
2022-12-02T05:29:43.438Z,95503.75
2022-12-02T05:32:10.235Z,95500.25
2022-12-02T05:34:36.987Z,95506.63
2022-12-02T05:37:04.049Z,95517.16
2022-12-02T05:39:30.836Z,95516.00
2022-12-02T05:42:05.687Z,95512.84
2022-12-02T05:44:39.376Z,95520.00
2022-12-02T05:47:11.841Z,95523.09
2022-12-02T05:49:40.038Z,95522.75
2022-12-02T05:52:27.111Z,95521.78
2022-12-02T05:55:00.679Z,95523.03
2022-12-02T05:57:30.410Z,95532.38
2022-12-02T06:00:22.180Z,95535.13
2022-12-02T06:02:58.711Z,95523.78
2022-12-02T06:05:29.332Z,95536.31
2022-12-02T06:08:01.464Z,95530.91
2022-12-02T06:10:30.677Z,95538.41
2022-12-02T06:13:07.413Z,95549.69
2022-12-02T06:15:38.451Z,95553.88
2022-12-02T06:18:23.468Z,95550.13
2022-12-02T06:20:55.308Z,95556.09
2022-12-02T06:23:27.305Z,95562.19
2022-12-02T06:25:55.354Z,95563.88
2022-12-02T06:28:34.506Z,95559.97
2022-12-02T06:31:16.887Z,95567.78
2022-12-02T06:33:47.319Z,95546.09
2022-12-02T06:36:25.252Z,95560.84
2022-12-02T06:38:57.124Z,95565.09
2022-12-02T06:41:30.178Z,95563.16
2022-12-02T06:44:51.335Z,95568.47
2022-12-02T06:47:33.580Z,95561.28
2022-12-02T06:50:06.338Z,95558.84
2022-12-02T06:52:39.942Z,95562.50
2022-12-02T06:55:29.551Z,95559.31
2022-12-02T06:58:03.007Z,95571.34
2022-12-02T07:00:32.666Z,95567.50
2022-12-02T07:02:59.383Z,95560.84
2022-12-02T07:05:26.290Z,95572.81
2022-12-02T07:07:54.125Z,95573.50
2022-12-02T07:10:25.477Z,95569.88
2022-12-02T07:12:53.936Z,95569.41
2022-12-02T07:15:29.798Z,95573.38
2022-12-02T07:17:58.616Z,95569.88
2022-12-02T07:20:33.218Z,95571.59
2022-12-02T07:23:15.839Z,95567.50
2022-12-02T07:25:52.665Z,95568.41
2022-12-02T07:28:24.983Z,95575.69
2022-12-02T07:31:08.970Z,95580.25
2022-12-02T07:33:36.256Z,95571.59
2022-12-02T07:36:03.080Z,95566.28
2022-12-02T07:38:57.637Z,95565.56
2022-12-02T07:41:19.541Z,95567.50
2022-12-02T07:43:46.619Z,95568.06
2022-12-02T07:46:13.581Z,95573.19
2022-12-02T07:48:40.373Z,95593.59
2022-12-02T07:51:07.521Z,95584.47
2022-12-02T07:53:34.218Z,95585.97
2022-12-02T07:56:01.071Z,95587.47
2022-12-02T07:58:48.291Z,95588.41
2022-12-02T08:01:19.039Z,95597.59
2022-12-02T08:03:46.630Z,95590.56
2022-12-02T08:06:13.303Z,95601.09
2022-12-02T08:08:40.149Z,95597.91
2022-12-02T08:11:07.988Z,95597.16
2022-12-02T08:13:34.842Z,95599.97
2022-12-02T08:16:01.522Z,95607.41
2022-12-02T08:18:28.710Z,95603.47
2022-12-02T08:20:55.449Z,95604.28
2022-12-02T08:23:22.257Z,95602.47
2022-12-02T08:25:49.244Z,95593.75
2022-12-02T08:28:16.213Z,95593.06
2022-12-02T08:30:43.037Z,95599.28
2022-12-02T08:33:10.005Z,95601.34
2022-12-02T08:35:39.678Z,95604.88
2022-12-02T08:38:07.977Z,95609.41
2022-12-02T08:40:35.320Z,95608.97
2022-12-02T08:43:02.756Z,95606.81
2022-12-02T08:45:30.473Z,95610.69
2022-12-02T08:47:57.281Z,95613.16
2022-12-02T08:50:24.541Z,95609.06
2022-12-02T08:52:58.152Z,95617.03
2022-12-02T08:55:26.429Z,95620.69
2022-12-02T08:57:53.661Z,95626.13
2022-12-02T09:00:20.837Z,95625.19
2022-12-02T09:02:48.019Z,95617.34
2022-12-02T09:05:15.600Z,95612.91
2022-12-02T09:07:42.399Z,95615.31
2022-12-02T09:10:10.616Z,95611.59
2022-12-02T09:12:37.384Z,95601.50
2022-12-02T09:15:05.395Z,95610.34
2022-12-02T09:17:32.072Z,95611.47
2022-12-02T09:19:59.277Z,95612.97
2022-12-02T09:22:26.184Z,95612.25
2022-12-02T09:24:53.324Z,95599.78
2022-12-02T09:27:20.340Z,95600.13
2022-12-02T09:29:47.203Z,95597.03
2022-12-02T09:32:14.002Z,95602.03
2022-12-02T09:34:40.692Z,95600.47
2022-12-02T09:37:07.653Z,95603.19
2022-12-02T09:39:53.203Z,95601.31
2022-12-02T09:42:20.677Z,95589.00
2022-12-02T09:44:48.734Z,95599.28
2022-12-02T09:47:17.948Z,95596.06
2022-12-02T09:49:45.935Z,95590.25
2022-12-02T09:52:19.774Z,95585.94
2022-12-02T09:54:49.640Z,95593.03
2022-12-02T09:57:17.656Z,95589.16
2022-12-02T09:59:44.790Z,95582.38
2022-12-02T10:02:48.164Z,95587.66
2022-12-02T10:05:24.769Z,95586.84
2022-12-02T10:07:54.635Z,95588.88
2022-12-02T10:10:26.138Z,95583.41
2022-12-02T10:12:54.170Z,95589.28
2022-12-02T10:15:26.607Z,95579.25
2022-12-02T10:17:55.119Z,95572.53
2022-12-02T10:20:25.193Z,95573.78
2022-12-02T10:23:20.558Z,95570.31
2022-12-02T10:25:54.317Z,95565.28
2022-12-02T10:28:30.533Z,95578.44
2022-12-02T10:31:22.577Z,95574.44
2022-12-02T10:33:56.563Z,95570.59
2022-12-02T10:36:53.685Z,95575.09
2022-12-02T10:39:38.089Z,95575.66
2022-12-02T10:42:08.619Z,95564.91
2022-12-02T10:44:42.897Z,95566.91
2022-12-02T10:47:26.122Z,95563.31
2022-12-02T10:49:55.657Z,95566.53
2022-12-02T10:52:35.364Z,95560.31
2022-12-02T10:55:04.356Z,95564.50
2022-12-02T10:57:33.359Z,95563.41
2022-12-02T11:00:05.450Z,95560.91
2022-12-02T11:02:40.195Z,95558.16
2022-12-02T11:05:25.356Z,95559.84
2022-12-02T11:07:57.848Z,95565.34
2022-12-02T11:10:29.012Z,95569.84
2022-12-02T11:12:55.777Z,95566.03
2022-12-02T11:15:45.065Z,95574.22
2022-12-02T11:18:30.135Z,95567.34
2022-12-02T11:21:03.509Z,95574.69
2022-12-02T11:23:31.736Z,95574.97
2022-12-02T11:26:02.087Z,95576.41
2022-12-02T11:28:28.903Z,95583.22
2022-12-02T11:31:10.710Z,95590.41
2022-12-02T11:33:44.204Z,95579.13
2022-12-02T11:36:19.516Z,95580.41
2022-12-02T11:38:58.616Z,95576.88
2022-12-02T11:41:27.811Z,95578.16
2022-12-02T11:44:00.341Z,95584.63
2022-12-02T11:46:51.137Z,95581.63
2022-12-02T11:49:31.413Z,95579.69
2022-12-02T11:52:10.164Z,95581.75
2022-12-02T11:54:39.512Z,95583.78
2022-12-02T11:57:07.084Z,95580.31
2022-12-02T11:59:36.637Z,95572.88
2022-12-02T12:02:17.420Z,95576.19
2022-12-02T12:04:45.161Z,95584.41
2022-12-02T12:07:12.608Z,95578.81
2022-12-02T12:09:40.050Z,95578.75
2022-12-02T12:12:19.010Z,95583.25
2022-12-02T12:14:56.368Z,95579.50
2022-12-02T12:17:45.318Z,95575.19
2022-12-02T12:20:15.115Z,95578.75
2022-12-02T12:22:42.043Z,95582.75
2022-12-02T12:25:31.812Z,95579.28
2022-12-02T12:27:58.868Z,95578.38
2022-12-02T12:30:25.707Z,95576.38
2022-12-02T12:32:52.809Z,95577.06
2022-12-02T12:35:19.947Z,95584.03
2022-12-02T12:37:46.782Z,95584.41
2022-12-02T12:40:13.807Z,95583.47
2022-12-02T12:42:40.672Z,95577.50
2022-12-02T12:45:07.798Z,95584.84
2022-12-02T12:47:34.988Z,95581.38
2022-12-02T12:50:01.759Z,95582.63
2022-12-02T12:52:28.588Z,95587.94
2022-12-02T12:54:55.756Z,95586.84
2022-12-02T12:57:22.502Z,95589.88
2022-12-02T12:59:49.629Z,95589.28
2022-12-02T13:02:16.977Z,95593.69
2022-12-02T13:04:43.802Z,95583.16
2022-12-02T13:07:10.640Z,95589.00
2022-12-02T13:09:37.395Z,95587.66
2022-12-02T13:12:08.420Z,95591.09
2022-12-02T13:14:38.139Z,95584.53
2022-12-02T13:17:05.148Z,95582.06
2022-12-02T13:19:31.885Z,95583.28
2022-12-02T13:21:58.666Z,95597.03
2022-12-02T13:24:25.603Z,95593.72
2022-12-02T13:26:52.393Z,95596.59
2022-12-02T13:29:19.127Z,95602.00
2022-12-02T13:31:46.103Z,95595.16
2022-12-02T13:34:12.938Z,95605.09
2022-12-02T13:36:39.705Z,95606.19
2022-12-02T13:39:11.424Z,95601.63
2022-12-02T13:41:38.861Z,95606.91
2022-12-02T13:44:05.693Z,95606.34
2022-12-02T13:46:32.928Z,95597.63
2022-12-02T13:48:59.706Z,95604.34
2022-12-02T13:51:26.775Z,95605.09
2022-12-02T13:53:58.714Z,95605.31
2022-12-02T13:56:26.033Z,95606.44
2022-12-02T13:58:52.788Z,95601.19
2022-12-02T14:01:20.200Z,95612.22
2022-12-02T14:03:47.095Z,95617.59
2022-12-02T14:06:13.941Z,95618.47
2022-12-02T14:08:40.769Z,95621.63
2022-12-02T14:11:07.665Z,95624.13
2022-12-02T14:13:34.791Z,95622.38
2022-12-02T14:16:01.631Z,95628.31
2022-12-02T14:18:28.587Z,95628.94
2022-12-02T14:20:55.419Z,95620.91
2022-12-02T14:23:22.388Z,95631.63
2022-12-02T14:25:49.206Z,95631.50
2022-12-02T14:28:16.179Z,95633.31
2022-12-02T14:30:43.019Z,95637.19
2022-12-02T14:33:09.913Z,95640.53
2022-12-02T14:35:37.044Z,95639.03
2022-12-02T14:38:03.852Z,95633.38
2022-12-02T14:40:31.917Z,95642.38
2022-12-02T14:42:58.905Z,95645.47
2022-12-02T14:45:26.721Z,95646.88
2022-12-02T14:47:53.589Z,95644.91
2022-12-02T14:50:24.811Z,95656.78
2022-12-02T14:52:52.730Z,95649.59
2022-12-02T14:55:19.551Z,95644.91
2022-12-02T14:57:46.447Z,95633.53
2022-12-02T15:00:14.110Z,95645.88
2022-12-02T15:02:41.053Z,95656.69
2022-12-02T15:05:14.014Z,95650.53
2022-12-02T15:07:41.438Z,95649.06
2022-12-02T15:10:08.826Z,95652.97
2022-12-02T15:12:35.922Z,95660.66
2022-12-02T15:17:50.147Z,95662.56
2022-12-02T15:20:17.123Z,95658.63
2022-12-02T15:22:44.020Z,95657.34
2022-12-02T15:25:12.021Z,95654.63
2022-12-02T15:27:38.839Z,95660.16
2022-12-02T15:30:06.512Z,95661.75
2022-12-02T15:32:33.281Z,95658.44
2022-12-02T15:35:00.191Z,95660.22
2022-12-02T15:37:26.943Z,95655.25
2022-12-02T15:39:53.896Z,95664.09
2022-12-02T15:42:21.126Z,95663.13
2022-12-02T15:44:52.176Z,95661.66
2022-12-02T15:47:19.304Z,95665.38
2022-12-02T15:49:46.067Z,95667.25
2022-12-02T15:52:12.909Z,95681.03
2022-12-02T15:54:39.615Z,95675.91
2022-12-02T15:57:06.476Z,95671.75
2022-12-02T15:59:33.231Z,95674.00
2022-12-02T16:02:00.218Z,95679.25
2022-12-02T16:04:26.987Z,95671.09
2022-12-02T16:06:53.757Z,95676.72
2022-12-02T16:09:20.555Z,95680.06
2022-12-02T16:11:47.477Z,95680.38
2022-12-02T16:14:15.513Z,95682.09
2022-12-02T16:16:42.379Z,95683.59
2022-12-02T16:19:09.335Z,95682.69
2022-12-02T16:21:36.161Z,95679.25
2022-12-02T16:24:03.142Z,95681.91
2022-12-02T16:26:29.911Z,95689.41
2022-12-02T16:28:57.125Z,95690.41
2022-12-02T16:31:23.885Z,95684.44
2022-12-02T16:33:50.897Z,95692.94
2022-12-02T16:36:17.676Z,95689.06
2022-12-02T16:38:44.547Z,95699.88
2022-12-02T16:41:11.276Z,95697.91
2022-12-02T16:43:38.176Z,95699.41
2022-12-02T16:46:05.148Z,95710.84
2022-12-02T16:48:31.963Z,95707.66
2022-12-02T16:50:58.957Z,95689.97
2022-12-02T16:53:25.662Z,95708.50
2022-12-02T16:55:52.602Z,95704.28
2022-12-02T16:58:19.482Z,95708.97
2022-12-02T17:00:46.357Z,95715.09
2022-12-02T17:03:13.143Z,95726.53
2022-12-02T17:05:41.077Z,95726.63
2022-12-02T17:08:08.074Z,95730.50
2022-12-02T17:10:34.993Z,95733.34
2022-12-02T17:13:01.825Z,95731.28
2022-12-02T17:15:28.614Z,95744.72
2022-12-02T17:17:55.770Z,95739.81
2022-12-02T17:20:22.511Z,95745.13
2022-12-02T17:22:49.381Z,95752.06
2022-12-02T17:25:17.575Z,95754.81
2022-12-02T17:27:44.305Z,95756.31
2022-12-02T17:30:12.107Z,95762.69
2022-12-02T17:32:39.379Z,95763.50
2022-12-02T17:35:06.270Z,95769.06
2022-12-02T17:37:33.319Z,95766.78
2022-12-02T17:40:00.243Z,95755.94
2022-12-02T17:42:27.157Z,95774.63
2022-12-02T17:44:54.257Z,95772.13
2022-12-02T17:47:21.326Z,95771.34
2022-12-02T17:49:48.118Z,95776.88
2022-12-02T17:52:22.095Z,95769.28
2022-12-02T17:54:49.440Z,95761.06
2022-12-02T17:57:16.385Z,95767.50
2022-12-02T17:59:43.357Z,95759.91
2022-12-02T18:02:10.574Z,95752.75
2022-12-02T18:04:37.771Z,95762.75
2022-12-02T18:07:09.683Z,95763.63
2022-12-02T18:09:37.658Z,95765.06
2022-12-02T18:12:05.486Z,95760.03
2022-12-02T18:14:32.994Z,95759.38
2022-12-02T18:17:00.069Z,95760.75
2022-12-02T18:19:27.284Z,95764.03
2022-12-02T18:21:54.111Z,95758.06
2022-12-02T18:24:20.951Z,95763.03
2022-12-02T18:26:47.818Z,95770.16
2022-12-02T18:29:14.597Z,95774.53
2022-12-02T18:31:41.535Z,95766.13
2022-12-02T18:34:08.343Z,95766.75
2022-12-02T18:36:35.294Z,95773.88
2022-12-02T18:39:01.970Z,95768.47
2022-12-02T18:41:28.727Z,95772.56
2022-12-02T18:43:55.725Z,95768.47
2022-12-02T18:46:22.495Z,95768.47
2022-12-02T18:48:49.257Z,95767.56
2022-12-02T18:51:16.181Z,95767.69
2022-12-02T18:53:42.915Z,95780.06
2022-12-02T18:56:09.812Z,95769.16
2022-12-02T18:58:36.527Z,95779.19
2022-12-02T19:01:03.351Z,95785.84
2022-12-02T19:03:30.394Z,95782.16
2022-12-02T19:05:57.207Z,95787.84
2022-12-02T19:08:23.881Z,95785.53
2022-12-02T19:10:51.172Z,95768.91
2022-12-02T19:13:17.869Z,95794.34
2022-12-02T19:15:44.704Z,95799.00
2022-12-02T19:18:11.859Z,95800.13
2022-12-02T19:20:38.630Z,95794.44
2022-12-02T19:23:05.339Z,95800.34
2022-12-02T19:25:32.535Z,95810.38
2022-12-02T19:27:59.557Z,95792.13
2022-12-02T19:30:27.566Z,95804.69
2022-12-02T19:32:54.601Z,95803.34
2022-12-02T19:35:22.424Z,95819.47
2022-12-02T19:37:49.299Z,95817.09
2022-12-02T19:40:16.256Z,95823.44
2022-12-02T19:42:43.157Z,95821.19
2022-12-02T19:45:13.125Z,95810.34
2022-12-02T19:47:39.906Z,95811.63
2022-12-02T19:50:08.004Z,95809.56
2022-12-02T19:52:34.797Z,95814.81
2022-12-02T19:55:01.853Z,95792.25
2022-12-02T19:57:28.607Z,95814.06
2022-12-02T19:59:55.308Z,95818.69
2022-12-02T20:02:22.079Z,95807.84
2022-12-02T20:04:49.630Z,95819.41
2022-12-02T20:07:16.390Z,95814.56
2022-12-02T20:09:43.319Z,95822.41
2022-12-02T20:12:10.015Z,95823.88
2022-12-02T20:14:36.865Z,95814.38
2022-12-02T20:17:03.817Z,95808.66
2022-12-02T20:19:30.584Z,95806.72
2022-12-02T20:21:57.582Z,95809.91
2022-12-02T20:24:24.375Z,95803.19
2022-12-02T20:26:51.295Z,95800.03
2022-12-02T20:29:18.041Z,95801.94
2022-12-02T20:31:45.919Z,95805.13
2022-12-02T20:34:12.766Z,95799.56
2022-12-02T20:36:39.789Z,95806.97
2022-12-02T20:39:06.573Z,95812.41
2022-12-02T20:41:33.518Z,95822.34
2022-12-02T20:44:00.260Z,95812.41
2022-12-02T20:46:28.572Z,95811.97
2022-12-02T20:48:55.492Z,95812.03
2022-12-02T20:51:22.570Z,95809.19
2022-12-02T20:53:50.734Z,95807.38
2022-12-02T20:56:17.485Z,95809.56
2022-12-02T20:58:46.645Z,95806.50
2022-12-02T21:01:13.739Z,95804.50
2022-12-02T21:03:40.538Z,95811.81
2022-12-02T21:06:08.225Z,95811.69
2022-12-02T21:08:35.521Z,95815.47
2022-12-02T21:11:02.520Z,95813.66
2022-12-02T21:13:29.244Z,95812.44
2022-12-02T21:15:56.448Z,95805.59
2022-12-02T21:18:23.261Z,95811.66
2022-12-02T21:20:51.219Z,95814.09
2022-12-02T21:23:19.158Z,95810.53
2022-12-02T21:25:45.935Z,95810.75
2022-12-02T21:28:12.766Z,95811.19
2022-12-02T21:30:40.817Z,95815.63
2022-12-02T21:33:07.485Z,95807.84
2022-12-02T21:35:34.401Z,95795.81
2022-12-02T21:38:01.195Z,95808.09
2022-12-02T21:40:28.090Z,95810.16
2022-12-02T21:42:54.758Z,95805.25
2022-12-02T21:45:21.783Z,95792.75
2022-12-02T21:47:48.626Z,95811.84
2022-12-02T21:50:15.521Z,95808.09
2022-12-02T21:52:42.586Z,95806.59
2022-12-02T21:55:10.927Z,95814.25
2022-12-02T21:57:37.708Z,95813.22
2022-12-02T22:00:05.915Z,95814.00
2022-12-02T22:02:39.662Z,95815.03
2022-12-02T22:05:07.320Z,95825.16
2022-12-02T22:07:40.911Z,95814.94
2022-12-02T22:10:10.275Z,95820.75
2022-12-02T22:12:36.887Z,95811.84
2022-12-02T22:15:04.604Z,95809.47
2022-12-02T22:17:31.350Z,95806.72
2022-12-02T22:19:58.433Z,95804.69
2022-12-02T22:22:25.323Z,95812.75
2022-12-02T22:24:52.735Z,95810.13
2022-12-02T22:27:19.501Z,95812.09
2022-12-02T22:29:46.434Z,95812.31
2022-12-02T22:32:13.307Z,95815.38
2022-12-02T22:34:40.274Z,95807.63
2022-12-02T22:37:06.974Z,95816.03
2022-12-02T22:39:34.017Z,95812.66
2022-12-02T22:42:01.126Z,95813.78
2022-12-02T22:44:27.831Z,95810.59
2022-12-02T22:46:54.522Z,95815.94
2022-12-02T22:49:21.219Z,95821.53
2022-12-02T22:51:48.232Z,95819.22
2022-12-02T22:54:14.935Z,95820.50
2022-12-02T22:56:41.694Z,95822.34
2022-12-02T22:59:08.750Z,95822.31
2022-12-02T23:01:35.486Z,95811.97
2022-12-02T23:04:02.618Z,95806.38
2022-12-02T23:06:29.913Z,95814.91
2022-12-02T23:08:56.803Z,95821.28
2022-12-02T23:11:23.726Z,95814.25
2022-12-02T23:13:50.439Z,95823.56
2022-12-02T23:16:17.386Z,95793.66
2022-12-02T23:18:44.228Z,95816.75
2022-12-02T23:21:11.116Z,95818.56
2022-12-02T23:23:37.942Z,95818.38
2022-12-02T23:26:04.713Z,95807.97
2022-12-02T23:28:32.027Z,95803.44
2022-12-02T23:30:58.845Z,95817.44
2022-12-02T23:33:25.760Z,95812.78
2022-12-02T23:35:52.549Z,95818.91
2022-12-02T23:38:19.387Z,95810.28
2022-12-02T23:40:46.105Z,95812.03
2022-12-02T23:43:12.951Z,95817.19
2022-12-02T23:45:40.272Z,95812.53
2022-12-02T23:48:07.107Z,95817.91
2022-12-02T23:50:33.930Z,95820.16
2022-12-02T23:53:00.699Z,95818.56
2022-12-02T23:55:27.610Z,95817.19
2022-12-02T23:57:54.397Z,95812.19
